NEODyS-2

Near Earth Objects - Dynamic Site
NEODyS ∴ Observatories ∴ Site 691 ∴ Obs & residuals
Contact »
691  ▹ 
OBSERVATIONS AND RESIDUALS

691-Steward Observatory, Kitt Peak-Spacewatch

Detections | Residuals | Detections & Residuals

[1-200] [201-400] [401-600] [601-800] [801-1000] [1001-1200] [1201-1400] [1401-1600] [1601-1800] [1801-2000] [2001-2200] [2201-2400] [2401-2600] [2601-2800] [2801-3000] [3001-3200] [3201-3400] [3401-3600] [3601-3800] [3801-4000] [4001-4200] [4201-4400] [4401-4600] [4601-4800] [4801-5000] [5001-5200] [5201-5400] [5401-5600] [5601-5800] [5801-6000] [6001-6200] [6201-6400] [6401-6600] [6601-6800] [6801-7000] [7001-7200] [7201-7400] [7401-7600] [7601-7800] [7801-8000] [8001-8200] [8201-8400] [8401-8600] [8601-8800] [8801-9000] [9001-9200] [9201-9400] [9401-9600] [9601-9800] [9801-10000] [10001-10200] [10201-10400] [10401-10600] [10601-10800] [10801-11000] [11001-11200] [11201-11400] [11401-11600] [11601-11800] [11801-12000] [12001-12200] [12201-12400] [12401-12600] [12601-12800] [12801-13000] [13001-13200] [13201-13400] [13401-13600] [13601-13800] [13801-14000] [14001-14200] [14201-14400] [14401-14600] [14601-14800] [14801-15000] [15001-15200] [15201-15400] [15401-15600] [15601-15800] [15801-16000] [16001-16200] [16201-16400] [16401-16600] [16601-16800] [16801-17000] [17001-17200] [17201-17400] [17401-17600] [17601-17800] [17801-18000] [18001-18200] [18201-18400] [18401-18600] [18601-18800] [18801-19000] [19001-19200] [19201-19400] [19401-19600] [19601-19800] [19801-20000] [20001-20200] [20201-20400] [20401-20600] [20601-20800] [20801-21000] [21001-21200] [21201-21400] [21401-21600] [21601-21800] [21801-22000] [22001-22200] [22201-22400] [22401-22600] [22601-22800] [22801-23000] [23001-23200] [23201-23400] [23401-23600] [23601-23800] [23801-24000] [24001-24200] [24201-24400] [24401-24600] [24601-24800] [24801-25000] [25001-25200] [25201-25400] [25401-25600] [25601-25800] [25801-26000] [26001-26200] [26201-26400] [26401-26600] [26601-26800] [26801-27000] [27001-27200] [27201-27400] [27401-27600] [27601-27800] [27801-28000] [28001-28200] [28201-28400] [28401-28600] [28601-28800] [28801-29000] [29001-29200] [29201-29400] [29401-29600] [29601-29800] [29801-30000] [30001-30200] [30201-30400] [30401-30600] [30601-30800] [30801-31000] [31001-31200] [31201-31400] [31401-31600] [31601-31800] [31801-32000] [32001-32200] [32201-32400] [32401-32600] [32601-32800] [32801-33000] [33001-33200] [33201-33400] [33401-33600] [33601-33800] [33801-34000] [34001-34200] [34201-34400] [34401-34600] [34601-34800] [34801-35000] [35001-35200] [35201-35400] [35401-35600] [35601-35800] [35801-36000] [36001-36200] [36201-36400] [36401-36600] [36601-36800] [36801-37000] [37001-37200] [37201-37400] [37401-37600] [37601-37800] [37801-38000] [38001-38200] [38201-38400] [38401-38600] [38601-38800] [38801-39000] [39001-39200] [39201-39400] [39401-39600] [39601-39800] [39801-40000] [40001-40200] [40201-40400] [40401-40600] [40601-40800] [40801-41000] [41001-41200] [41201-41400] [41401-41600] [41601-41800] [41801-42000] [42001-42200] [42201-42400] [42401-42600] [42601-42800] [42801-43000] [43001-43200] [43201-43400] [43401-43600] [43601-43800] [43801-44000] [44001-44200] [44201-44400] [44401-44600] [44601-44800] [44801-45000] [45001-45200] [45201-45400] [45401-45600] [45601-45800] [45801-46000] [46001-46200] [46201-46400] [46401-46600] [46601-46800] [46801-47000] [47001-47200] [47201-47400] [47401-47600] [47601-47800] [47801-48000] [48001-48200] [48201-48400] [48401-48600] [48601-48800] [48801-49000] [49001-49200] [49201-49400] [49401-49600] [49601-49800] [49801-50000] [50001-50200] [50201-50388]

Designation T Tech N Date Right Ascension Declination Apparent Magnitude Star Catalog Site code χ Used A Used M
yr-mo-day precision hr:min:sec precision rms F bias residual deg min sec precision rms F bias residual mag/col rms residual
2004GA1 O C 2008-12-29.16674 1.000E-05 05:50:52.050 1.500E-01 0.500 F -0.069 0.279 +21° 17' 59.70" 1.000E-01 0.500 F 0.149 0.108 21.2 V 0.70 0.44 o 691 0.60 Yes Yes
2001WN5 O C 2008-12-29.18218 1.000E-05 06:53:10.590 1.500E-01 0.500 F -0.095 -0.152 +22° 43' 36.20" 1.000E-01 0.500 F 0.151 0.058 20.1 V 0.70 -0.18 o 691 0.33 Yes Yes
2001WN5 O C 2008-12-29.20029 1.000E-05 06:53:08.530 1.500E-01 0.500 F -0.095 -0.417 +22° 43' 37.80" 1.000E-01 0.500 F 0.151 0.014 20.3 V 0.70 0.02 o 691 0.84 Yes Yes
2001WN5 O C 2008-12-29.21841 1.000E-05 06:53:06.470 1.500E-01 0.500 F -0.095 -0.605 +22° 43' 39.30" 1.000E-01 0.500 F 0.151 -0.105 20.1 V 0.70 -0.18 o 691 1.23 Yes Yes
2001KN20 O C H 2008-12-29.23891 1.000E-05 07:22:36.610 1.500E-01 0.500 F 0.012 -0.005 +22° 09' 33.40" 1.000E-01 0.500 F 0.235 -0.769 o 691 1.54 Yes No
2001KN20 O C H 2008-12-29.25703 1.000E-05 07:22:35.310 1.500E-01 0.500 F 0.012 0.285 +22° 09' 39.00" 1.000E-01 0.500 F 0.235 -0.840 o 691 1.78 Yes No
2001KN20 O C H 2008-12-29.27539 1.000E-05 07:22:34.000 1.500E-01 0.500 F 0.012 0.707 +22° 09' 45.20" 1.000E-01 0.500 F 0.235 -0.370 o 691 1.60 Yes No
1997AP10 O C 2008-12-29.29073 1.000E-05 07:37:32.680 1.500E-01 0.500 F -0.070 -0.301 +22° 54' 20.60" 1.000E-01 0.500 F 0.195 -0.208 20.1 V 0.70 0.06 o 691 0.73 Yes Yes
Blume O C 2008-12-29.30098 1.000E-05 07:43:13.990 1.500E-01 0.500 F -0.092 0.151 +21° 07' 49.00" 1.000E-01 0.500 F 0.299 0.302 20.8 V 0.70 -0.34 o 691 0.68 Yes Yes
Beltrovata O C 2008-12-29.30098 1.000E-05 07:43:13.070 1.500E-01 0.500 F -0.110 -2.500 +21° 18' 26.70" 1.000E-01 0.500 F 0.294 -0.989 18.1 V 0.70 -0.42 o 691 5.37 No Yes
1997AP10 O C 2008-12-29.30885 1.000E-05 07:37:30.640 1.500E-01 0.500 F -0.070 -0.237 +22° 54' 23.60" 1.000E-01 0.500 F 0.195 -0.035 19.9 V 0.70 -0.14 o 691 0.48 Yes Yes
Blume O C 2008-12-29.31909 1.000E-05 07:43:12.510 1.500E-01 0.500 F -0.092 -0.659 +21° 07' 53.90" 1.000E-01 0.500 F 0.299 0.098 21.2 V 0.70 0.06 o 691 1.34 Yes Yes
Beltrovata O C 2008-12-29.31909 1.000E-05 07:43:11.790 1.500E-01 0.500 F -0.110 0.069 +21° 18' 29.20" 1.000E-01 0.500 F 0.294 -0.032 18.4 V 0.70 -0.12 o 691 0.15 Yes Yes
1997AP10 O C 2008-12-29.32696 1.000E-05 07:37:28.600 1.500E-01 0.500 F -0.070 -0.163 +22° 54' 26.50" 1.000E-01 0.500 F 0.195 0.066 19.7 V 0.70 -0.34 o 691 0.35 Yes Yes
Blume O C 2008-12-29.33746 1.000E-05 07:43:11.070 1.500E-01 0.500 F -0.092 -0.604 +21° 07' 58.10" 1.000E-01 0.500 F 0.299 -0.857 20.5 V 0.70 -0.64 o 691 2.10 Yes Yes
Beltrovata O C 2008-12-29.33746 1.000E-05 07:43:10.300 1.500E-01 0.500 F -0.110 0.017 +21° 18' 30.70" 1.000E-01 0.500 F 0.294 -0.075 18.5 V 0.70 -0.02 o 691 0.16 Yes Yes
2006WQ1 O C H 2008-12-29.35796 1.000E-05 08:04:41.570 1.500E-01 0.500 F -0.010 -0.338 +17° 55' 13.30" 1.000E-01 0.500 F 0.140 -0.648 21.0 V 0.70 0.09 o 691 1.47 Yes Yes
2006WQ1 O C H 2008-12-29.37631 1.000E-05 08:04:39.890 1.500E-01 0.500 F -0.010 0.333 +17° 55' 31.80" 1.000E-01 0.500 F 0.140 -0.232 20.9 V 0.70 -0.01 o 691 0.82 Yes Yes
2006WQ1 O C H 2008-12-29.39442 1.000E-05 08:04:38.180 1.500E-01 0.500 F -0.010 0.262 +17° 55' 49.30" 1.000E-01 0.500 F 0.140 -0.545 20.7 V 0.70 -0.21 o 691 1.22 Yes Yes
2000NF5 O C H 2008-12-29.41994 1.000E-05 08:49:43.110 1.500E-01 0.500 F 0.014 -0.760 +17° 07' 40.30" 1.000E-01 0.500 F 0.167 -0.415 20.9 V 0.70 -0.16 o 691 1.73 Yes Yes
2000NF5 O C H 2008-12-29.43884 1.000E-05 08:49:42.350 1.500E-01 0.500 F 0.014 1.081 +17° 07' 43.10" 1.000E-01 0.500 F 0.167 -0.612 20.2 V 0.70 -0.86 o 691 2.49 Yes Yes
2000NF5 O C H 2008-12-29.45695 1.000E-05 08:49:41.410 1.500E-01 0.500 F 0.014 -0.194 +17° 07' 46.50" 1.000E-01 0.500 F 0.167 -0.073 20.9 V 0.70 -0.16 o 691 0.41 Yes Yes
2004YJ32 O C 2008-12-29.47242 1.000E-05 09:03:24.860 1.500E-01 0.500 F 0.110 -0.299 +17° 15' 56.20" 1.000E-01 0.500 F 0.142 -0.015 20.5 V 0.70 -0.13 o 691 0.60 Yes Yes
2004YJ32 O C 2008-12-29.49053 1.000E-05 09:03:23.930 1.500E-01 0.500 F 0.110 -0.129 +17° 16' 02.10" 1.000E-01 0.500 F 0.142 -0.447 20.3 V 0.70 -0.33 o 691 0.93 Yes Yes
2004YJ32 O C 2008-12-29.50888 1.000E-05 09:03:22.950 1.500E-01 0.500 F 0.110 -0.514 +17° 16' 09.00" 1.000E-01 0.500 F 0.142 0.048 20.2 V 0.70 -0.43 o 691 1.04 Yes Yes
Krok O C 2008-12-29.53026 1.000E-05 12:49:48.740 1.500E-01 0.500 F 0.109 -0.661 -05° 08' 14.30" 1.000E-01 0.500 F 0.187 0.062 21.0 V 0.70 -0.66 o 691 1.33 Yes Yes
Krok O C 2008-12-29.54331 1.000E-05 12:49:49.390 1.500E-01 0.500 F 0.109 0.052 -05° 08' 16.80" 1.000E-01 0.500 F 0.187 0.191 20.9 V 0.70 -0.76 o 691 0.40 Yes Yes
Krok O C 2008-12-29.55635 1.000E-05 12:49:49.970 1.500E-01 0.500 F 0.109 -0.269 -05° 08' 19.40" 1.000E-01 0.500 F 0.187 0.215 21.0 V 0.70 -0.66 o 691 0.69 Yes Yes
2008YD29 O C 2008-12-30.07820 1.000E-05 04:24:06.590 1.500E-01 0.500 F -0.202 -0.006 +22° 04' 11.70" 1.000E-01 0.500 F 0.138 0.277 20.9 V 0.70 -0.21 o 691 0.58 Yes Yes
2008YD29 O C 2008-12-30.09187 1.000E-05 04:24:06.450 1.500E-01 0.500 F -0.202 0.108 +22° 04' 58.30" 1.000E-01 0.500 F 0.138 0.072 20.7 V 0.70 -0.41 o 691 0.27 Yes Yes
2008YD29 O C 2008-12-30.10554 1.000E-05 04:24:06.280 1.500E-01 0.500 F -0.248 -0.032 +22° 05' 45.20" 1.000E-01 0.500 F 0.190 0.158 20.6 V 0.70 -0.51 o 691 0.34 Yes Yes
2003NP7 O C H 2008-12-30.29183 1.000E-05 07:54:57.510 1.500E-01 0.500 F -0.055 -0.195 +19° 16' 38.70" 1.000E-01 0.500 F 0.210 0.055 o 691 0.41 Yes No
2003NP7 O C H 2008-12-30.30993 1.000E-05 07:54:56.380 1.500E-01 0.500 F -0.055 1.809 +19° 16' 37.10" 1.000E-01 0.500 F 0.210 -0.831 o 691 3.92 No No
2003NP7 O C H 2008-12-30.32828 1.000E-05 07:54:55.010 1.500E-01 0.500 F -0.055 0.691 +19° 16' 36.60" 1.000E-01 0.500 F 0.210 -0.589 o 691 1.84 Yes No
2004QQ O C H 2008-12-30.40350 1.000E-05 08:46:07.180 1.500E-01 0.500 F -0.031 0.067 +16° 12' 24.40" 1.000E-01 0.500 F 0.066 0.142 21.1 V 0.70 -0.70 o 691 0.32 Yes Yes
2004QQ O C H 2008-12-30.42186 1.000E-05 08:46:06.100 1.500E-01 0.500 F -0.031 -0.367 +16° 12' 26.60" 1.000E-01 0.500 F 0.066 -0.491 21.6 V 0.70 -0.20 o 691 1.23 Yes Yes
2004QQ O C H 2008-12-30.44029 1.000E-05 08:46:05.080 1.500E-01 0.500 F -0.031 0.119 +16° 12' 29.20" 1.000E-01 0.500 F 0.066 -0.726 21.4 V 0.70 -0.40 o 691 1.47 Yes Yes
2003YL O C 2008-12-30.46332 1.000E-05 09:09:11.970 1.500E-01 0.500 F -0.001 -0.295 +16° 07' 11.90" 1.000E-01 0.500 F 0.148 0.256 20.5 V 0.70 -0.45 o 691 0.78 Yes Yes
2008YE30 O C 2008-12-30.46864 1.000E-05 08:59:01.330 1.500E-01 0.500 F 0.017 0.033 +14° 26' 24.60" 1.000E-01 0.500 F 0.193 -0.184 20.9 V 0.70 -0.20 o 691 0.38 Yes Yes
1990UQ O C H 2008-12-30.47356 1.000E-05 09:13:36.450 1.500E-01 0.500 F 0.015 -0.775 +14° 34' 53.20" 1.000E-01 0.500 F 0.216 0.634 21.3 V 0.70 0.01 o 691 2.00 Yes Yes
Toutatis O C H 2008-12-30.47356 1.000E-05 09:14:59.720 1.500E-01 0.500 F -0.052 -0.154 +15° 16' 45.50" 1.000E-01 0.500 F 0.186 -0.013 14.4 V 0.70 0.45 o 691 0.31 Yes Yes
2003YL O C 2008-12-30.48144 1.000E-05 09:09:08.680 1.500E-01 0.500 F -0.001 -0.603 +16° 07' 20.00" 1.000E-01 0.500 F 0.148 0.040 20.8 V 0.70 -0.15 o 691 1.21 Yes Yes
2008YE30 O C 2008-12-30.48676 1.000E-05 08:59:01.720 1.500E-01 0.500 F 0.017 0.007 +14° 25' 48.10" 1.000E-01 0.500 F 0.193 0.141 20.8 V 0.70 -0.29 o 691 0.29 Yes Yes
1990UQ O C H 2008-12-30.49193 1.000E-05 09:13:35.490 1.500E-01 0.500 F 0.015 0.306 +14° 34' 57.60" 1.000E-01 0.500 F 0.216 -0.210 21.6 V 0.70 0.31 o 691 0.74 Yes Yes
Toutatis O C H 2008-12-30.49193 1.000E-05 09:14:57.190 1.500E-01 0.500 F -0.052 -0.243 +15° 16' 58.30" 1.000E-01 0.500 F 0.186 0.001 14.3 V 0.70 0.35 o 691 0.49 Yes Yes
2003YL O C 2008-12-30.49980 1.000E-05 09:09:05.430 1.500E-01 0.500 F -0.001 0.245 +16° 07' 28.30" 1.000E-01 0.500 F 0.148 -0.048 20.5 V 0.70 -0.45 o 691 0.50 Yes Yes
2008YE30 O C 2008-12-30.50488 1.000E-05 08:59:02.090 1.500E-01 0.500 F 0.017 -0.409 +14° 25' 11.50" 1.000E-01 0.500 F 0.193 0.457 20.8 V 0.70 -0.29 o 691 1.26 Yes Yes
1990UQ O C H 2008-12-30.51005 1.000E-05 09:13:34.450 1.500E-01 0.500 F 0.015 0.002 +14° 35' 02.50" 1.000E-01 0.500 F 0.216 -0.472 o 691 0.94 Yes No
Toutatis O C H 2008-12-30.51005 1.000E-05 09:14:54.710 1.500E-01 0.500 F 0.037 -0.367 +15° 17' 10.90" 1.000E-01 0.500 F 0.192 0.078 14.6 V 0.70 0.65 o 691 0.75 Yes Yes
2000YN29 O C 2008-12-31.08795 1.000E-05 04:33:19.050 1.500E-01 0.500 F -0.153 -0.110 +23° 40' 37.10" 1.000E-01 0.500 F 0.177 0.023 20.0 V 0.70 -0.31 o 691 0.22 Yes Yes
2008YT30 O C 2008-12-31.09054 1.000E-05 04:32:56.760 1.500E-01 0.500 F -0.153 -0.334 +23° 02' 35.00" 1.000E-01 0.500 F 0.177 -0.019 20.2 V 0.70 -0.14 o 691 0.67 Yes Yes
2007AE12 O C 2008-12-31.09338 1.000E-05 04:32:30.600 1.500E-01 0.500 F -0.131 -0.320 +19° 37' 01.70" 1.000E-01 0.500 F 0.153 0.219 19.8 V 0.70 -0.17 o 691 0.78 Yes Yes
2000YN29 O C 2008-12-31.10180 1.000E-05 04:33:17.660 1.500E-01 0.500 F -0.153 -0.443 +23° 40' 36.20" 1.000E-01 0.500 F 0.177 -0.116 20.1 V 0.70 -0.21 o 691 0.92 Yes Yes
2008YT30 O C 2008-12-31.10439 1.000E-05 04:32:55.290 1.500E-01 0.500 F -0.153 -0.365 +23° 02' 16.80" 1.000E-01 0.500 F 0.177 -0.161 20.1 V 0.70 -0.24 o 691 0.81 Yes Yes
2007AE12 O C 2008-12-31.10698 1.000E-05 04:32:30.210 1.500E-01 0.500 F -0.131 -0.318 +19° 37' 00.80" 1.000E-01 0.500 F 0.153 0.095 19.9 V 0.70 -0.07 o 691 0.67 Yes Yes
2000YN29 O C 2008-12-31.11541 1.000E-05 04:33:16.320 1.500E-01 0.500 F -0.153 -0.388 +23° 40' 35.50" 1.000E-01 0.500 F 0.177 -0.055 20.2 V 0.70 -0.11 o 691 0.79 Yes Yes
2008YT30 O C 2008-12-31.11825 1.000E-05 04:32:53.830 1.500E-01 0.500 F -0.153 -0.195 +23° 01' 58.90" 1.000E-01 0.500 F 0.177 0.033 20.0 V 0.70 -0.34 o 691 0.40 Yes Yes
2007AE12 O C 2008-12-31.12084 1.000E-05 04:32:29.810 1.500E-01 0.500 F -0.131 -0.298 +19° 36' 59.90" 1.000E-01 0.500 F 0.153 0.009 20.0 V 0.70 0.03 o 691 0.60 Yes Yes
2003MA O C H 2008-12-31.18933 1.000E-05 07:00:10.350 1.500E-01 0.500 F -0.106 -0.653 +27° 04' 37.40" 1.000E-01 0.500 F 0.138 0.980 21.3 V 0.70 0.49 o 691 2.37 Yes Yes
2001MQ3 O C H 2008-12-31.20746 1.000E-05 06:52:45.580 1.500E-01 0.500 F -0.094 1.050 +28° 07' 35.70" 1.000E-01 0.500 F 0.168 -1.418 o 691 3.51 No No
2003MA O C H 2008-12-31.20746 1.000E-05 07:00:08.350 1.500E-01 0.500 F -0.106 -0.667 +27° 04' 52.60" 1.000E-01 0.500 F 0.138 -0.975 21.3 V 0.70 0.49 o 691 2.40 Yes Yes
2001MQ3 O C H 2008-12-31.22560 1.000E-05 06:52:43.850 1.500E-01 0.500 F -0.094 0.348 +28° 07' 35.90" 1.000E-01 0.500 F 0.168 -0.741 o 691 1.64 Yes No
2003MA O C H 2008-12-31.22560 1.000E-05 07:00:06.370 1.500E-01 0.500 F -0.106 -0.331 +27° 05' 09.20" 1.000E-01 0.500 F 0.138 -1.507 21.2 V 0.70 0.39 o 691 3.11 Yes Yes
2008YH30 O C 2008-12-31.29293 1.000E-05 07:39:38.390 1.500E-01 0.500 F -0.052 -0.044 +25° 44' 15.20" 1.000E-01 0.500 F 0.157 0.193 20.0 V 0.70 -0.39 o 691 0.44 Yes Yes
2008XE3 O C H 2008-12-31.29811 1.000E-05 07:58:53.810 1.500E-01 0.500 F 0.007 -0.167 +26° 33' 38.30" 1.000E-01 0.500 F 0.251 -0.001 19.5 V 0.70 0.42 o 691 0.34 Yes Yes
2008YW32 O C 2008-12-31.30057 1.000E-05 08:06:16.870 1.500E-01 0.500 F -0.010 0.121 +26° 21' 28.50" 1.000E-01 0.500 F 0.186 -0.073 21.3 V 0.70 0.24 o 691 0.31 Yes Yes
2002RX211 O C 2008-12-31.30327 1.000E-05 07:40:52.160 1.500E-01 0.500 F -0.094 -0.065 +24° 31' 10.90" 1.000E-01 0.500 F 0.163 -0.091 16.5 V 0.70 0.35 o 691 0.22 Yes Yes
2008YH30 O C 2008-12-31.31107 1.000E-05 07:39:43.270 1.500E-01 0.500 F -0.052 -0.282 +25° 46' 35.80" 1.000E-01 0.500 F 0.157 -0.138 20.3 V 0.70 -0.10 o 691 0.72 Yes Yes
2008YW32 O C 2008-12-31.31871 1.000E-05 08:06:21.740 1.500E-01 0.500 F -0.010 0.145 +26° 21' 11.20" 1.000E-01 0.500 F 0.186 -0.390 20.8 V 0.70 -0.26 o 691 0.88 Yes Yes
2002RX211 O C 2008-12-31.32166 1.000E-05 07:40:52.110 1.500E-01 0.500 F -0.094 -0.197 +24° 31' 39.30" 1.000E-01 0.500 F 0.163 -0.099 16.5 V 0.70 0.35 o 691 0.44 Yes Yes
2008YH30 O C 2008-12-31.32945 1.000E-05 07:39:48.180 1.500E-01 0.500 F -0.052 0.078 +25° 48' 55.90" 1.000E-01 0.500 F 0.157 -0.796 20.3 V 0.70 -0.11 o 691 1.73 Yes Yes
2008XE3 O C H 2008-12-31.33438 1.000E-05 07:58:50.460 1.500E-01 0.500 F 0.007 -0.079 +26° 33' 40.40" 1.000E-01 0.500 F 0.251 -0.129 19.4 V 0.70 0.32 o 691 0.30 Yes Yes
2008YW32 O C 2008-12-31.33709 1.000E-05 08:06:26.560 1.500E-01 0.500 F -0.010 -0.894 +26° 20' 54.40" 1.000E-01 0.500 F 0.186 0.470 20.9 V 0.70 -0.16 o 691 2.16 Yes Yes
2002RX211 O C 2008-12-31.33979 1.000E-05 07:40:52.060 1.500E-01 0.500 F -0.064 -0.278 +24° 32' 07.20" 1.000E-01 0.500 F 0.168 -0.028 16.3 V 0.70 0.15 o 691 0.56 Yes Yes
1998CS1 O C 2008-12-31.36565 1.000E-05 08:28:45.690 1.500E-01 0.500 F -0.069 -0.059 +13° 17' 06.50" 1.000E-01 0.500 F 0.137 0.219 15.4 V 0.70 -0.13 o 691 0.45 Yes Yes
1998CS1 O C 2008-12-31.38399 1.000E-05 08:28:47.710 1.500E-01 0.500 F -0.069 -0.038 +13° 17' 19.30" 1.000E-01 0.500 F 0.137 0.096 15.4 V 0.70 -0.13 o 691 0.21 Yes Yes
1998CS1 O C 2008-12-31.40209 1.000E-05 08:28:49.700 1.500E-01 0.500 F -0.069 -0.111 +13° 17' 32.00" 1.000E-01 0.500 F 0.137 0.124 15.5 V 0.70 -0.02 o 691 0.33 Yes Yes
2008YV148 O C 2008-12-31.45939 1.000E-05 09:00:10.960 1.500E-01 0.500 F -0.037 -0.081 +22° 48' 02.30" 1.000E-01 0.500 F 0.277 0.002 20.4 V 0.70 -0.33 o 691 0.16 Yes Yes
2008YV148 O C 2008-12-31.47777 1.000E-05 09:00:10.910 1.500E-01 0.500 F -0.037 -0.017 +22° 48' 32.30" 1.000E-01 0.500 F 0.277 -0.037 20.4 V 0.70 -0.33 o 691 0.08 Yes Yes
2008YV148 O C 2008-12-31.49937 1.000E-05 09:00:10.850 1.500E-01 0.500 F -0.037 -0.057 +22° 49' 07.50" 1.000E-01 0.500 F 0.277 -0.064 20.5 V 0.70 -0.23 o 691 0.17 Yes Yes
1996FG3 O C 2008-12-31.52119 1.000E-05 12:24:46.120 1.500E-01 0.500 F 0.067 -0.104 -03° 56' 32.30" 1.000E-01 0.500 F 0.166 0.163 20.5 V 0.70 -0.22 o 691 0.39 Yes Yes
1999JV6 O C H 2008-12-31.52365 1.000E-05 12:31:18.670 1.500E-01 0.500 F 0.170 -0.317 -02° 53' 36.90" 1.000E-01 0.500 F 0.145 -0.551 21.4 V 0.70 0.29 o 691 1.27 Yes Yes
1996FG3 O C 2008-12-31.53401 1.000E-05 12:24:47.290 1.500E-01 0.500 F 0.067 0.019 -03° 56' 41.60" 1.000E-01 0.500 F 0.166 0.264 20.5 V 0.70 -0.22 o 691 0.53 Yes Yes
1999JV6 O C H 2008-12-31.53671 1.000E-05 12:31:19.590 1.500E-01 0.500 F 0.170 -0.348 -02° 53' 35.00" 1.000E-01 0.500 F 0.145 -0.345 21.2 V 0.70 0.10 o 691 0.98 Yes Yes
1996FG3 O C 2008-12-31.54707 1.000E-05 12:24:48.450 1.500E-01 0.500 F 0.067 -0.325 -03° 56' 51.30" 1.000E-01 0.500 F 0.166 0.137 20.6 V 0.70 -0.12 o 691 0.71 Yes Yes
1999JV6 O C H 2008-12-31.54953 1.000E-05 12:31:20.500 1.500E-01 0.500 F 0.170 -0.260 -02° 53' 33.30" 1.000E-01 0.500 F 0.145 -0.316 20.8 V 0.70 -0.30 o 691 0.82 Yes Yes
2008YD29 O C t 2009-01-01.09641 1.000E-05 04:24:07.280 1.500E-01 0.500 F -0.266 0.175 +23° 58' 32.80" 1.000E-01 0.500 F 0.239 -0.888 o 691 1.86 Yes No
2008YD29 O C t 2009-01-01.11010 1.000E-05 04:24:07.250 1.500E-01 0.500 F -0.266 0.490 +23° 59' 20.50" 1.000E-01 0.500 F 0.239 -0.470 o 691 1.39 Yes No
2001XR1 O C 2009-01-01.34510 1.000E-05 08:14:55.710 1.500E-01 0.500 F -0.063 -0.202 +26° 14' 00.80" 1.000E-01 0.500 F 0.181 0.090 17.2 V 0.70 0.51 o 691 0.44 Yes Yes
2008YR27 O C 2009-01-01.34756 1.000E-05 08:23:53.520 1.500E-01 0.500 F 0.029 -0.701 +25° 15' 11.00" 1.000E-01 0.500 F 0.222 -0.477 21.2 V 0.70 1.06 o 691 1.71 Yes Yes
2001XR1 O C 2009-01-01.36326 1.000E-05 08:14:52.470 1.500E-01 0.500 F -0.063 -0.195 +26° 13' 42.50" 1.000E-01 0.500 F 0.181 -0.136 17.1 V 0.70 0.41 o 691 0.48 Yes Yes
2008YR27 O C 2009-01-01.36572 1.000E-05 08:23:52.010 1.500E-01 0.500 F 0.029 -0.628 +25° 15' 25.30" 1.000E-01 0.500 F 0.222 0.098 20.1 V 0.70 -0.04 o 691 1.29 Yes Yes
2001XR1 O C 2009-01-01.38143 1.000E-05 08:14:49.420 1.500E-01 0.500 F -0.063 2.462 +26° 13' 25.40" 1.000E-01 0.500 F 0.181 0.988 16.4 V 0.70 -0.29 o 691 5.27 No Yes
2008YR27 O C 2009-01-01.38414 1.000E-05 08:23:50.480 1.500E-01 0.500 F 0.029 -0.502 +25° 15' 38.80" 1.000E-01 0.500 F 0.222 -0.285 20.1 V 0.70 -0.04 o 691 1.17 Yes Yes
Zephyr O C 2009-01-01.40252 1.000E-05 08:45:30.340 1.500E-01 0.500 F 0.119 -0.143 +12° 05' 12.40" 1.000E-01 0.500 F 0.153 -0.010 20.0 V 0.70 -0.10 o 691 0.29 Yes Yes
2001KP41 O C H 2009-01-01.40499 1.000E-05 08:55:36.340 1.500E-01 0.500 F -0.008 0.882 +12° 20' 53.60" 1.000E-01 0.500 F 0.200 -0.467 o 691 2.00 Yes No
Zephyr O C 2009-01-01.42065 1.000E-05 08:45:29.240 1.500E-01 0.500 F 0.119 -0.388 +12° 05' 16.10" 1.000E-01 0.500 F 0.153 -0.092 20.1 V 0.70 0.00 o 691 0.80 Yes Yes
2001KP41 O C H 2009-01-01.42336 1.000E-05 08:55:35.660 1.500E-01 0.500 F -0.008 0.731 +12° 20' 56.50" 1.000E-01 0.500 F 0.200 -0.590 o 691 1.88 Yes No
Zephyr O C 2009-01-01.43904 1.000E-05 08:45:28.160 1.500E-01 0.500 F 0.119 -0.113 +12° 05' 19.90" 1.000E-01 0.500 F 0.153 -0.120 20.1 V 0.70 0.00 o 691 0.33 Yes Yes
2001KP41 O C H 2009-01-01.44151 1.000E-05 08:55:34.940 1.500E-01 0.500 F -0.008 -0.124 +12° 21' 00.80" 1.000E-01 0.500 F 0.200 0.727 21.7 V 0.70 -0.13 o 691 1.48 Yes Yes
2004XN35 O C H 2009-01-01.45702 1.000E-05 09:06:46.150 1.500E-01 0.500 F -0.038 0.356 +12° 48' 06.80" 1.000E-01 0.500 F 0.165 0.051 21.1 V 0.70 -0.38 o 691 0.72 Yes Yes
2007TX18 O C H 2009-01-01.45948 1.000E-05 09:12:22.970 1.500E-01 0.500 F 0.086 0.422 +12° 10' 58.60" 1.000E-01 0.500 F 0.198 -0.757 o 691 1.74 Yes No
2004XN35 O C H 2009-01-01.47514 1.000E-05 09:06:44.490 1.500E-01 0.500 F -0.038 0.815 +12° 48' 15.90" 1.000E-01 0.500 F 0.165 -0.507 21.1 V 0.70 -0.37 o 691 1.92 Yes Yes
2007TX18 O C H 2009-01-01.47785 1.000E-05 09:12:22.090 1.500E-01 0.500 F 0.086 -0.120 +12° 11' 00.50" 1.000E-01 0.500 F 0.198 0.189 21.6 V 0.70 -0.42 o 691 0.45 Yes Yes
2004XN35 O C H 2009-01-01.49351 1.000E-05 09:06:42.760 1.500E-01 0.500 F -0.038 0.572 +12° 48' 25.70" 1.000E-01 0.500 F 0.165 -0.487 20.9 V 0.70 -0.57 o 691 1.50 Yes Yes
2007TX18 O C H 2009-01-01.49598 1.000E-05 09:12:21.240 1.500E-01 0.500 F 0.086 -0.396 +12° 11' 01.70" 1.000E-01 0.500 F 0.198 0.454 21.8 V 0.70 -0.22 o 691 1.21 Yes Yes
1997XF11 O C 2009-01-01.51514 1.000E-05 12:20:09.340 1.500E-01 0.500 F 0.148 -0.421 -06° 34' 58.60" 1.000E-01 0.500 F -0.022 0.510 20.7 V 0.70 -0.13 o 691 1.32 Yes Yes
1997XF11 O C 2009-01-01.52823 1.000E-05 12:20:10.080 1.500E-01 0.500 F 0.148 -0.441 -06° 35' 04.40" 1.000E-01 0.500 F -0.022 0.641 20.6 V 0.70 -0.23 o 691 1.56 Yes Yes
1997XF11 O C 2009-01-01.54131 1.000E-05 12:20:10.840 1.500E-01 0.500 F 0.148 -0.150 -06° 35' 10.90" 1.000E-01 0.500 F -0.022 0.063 20.3 V 0.70 -0.53 o 691 0.32 Yes Yes
2000YJ29 O C 2009-01-02.07763 1.000E-05 04:33:22.320 1.500E-01 0.500 F -0.163 -0.212 +25° 45' 08.60" 1.000E-01 0.500 F 0.264 0.004 20.8 V 0.70 -0.20 o 691 0.43 Yes Yes
2000YN29 O C H 2009-01-02.08047 1.000E-05 04:30:09.360 1.500E-01 0.500 F -0.220 -0.150 +23° 38' 23.10" 1.000E-01 0.500 F 0.237 0.274 20.5 V 0.70 0.17 o 691 0.63 Yes Yes
2008YT30 O C H 2009-01-02.08307 1.000E-05 04:29:41.830 1.500E-01 0.500 F -0.224 -0.301 +22° 19' 06.10" 1.000E-01 0.500 F 0.153 -0.408 21.5 V 0.70 1.09 o 691 1.02 Yes Yes
2000YJ29 O C 2009-01-02.09151 1.000E-05 04:33:20.350 1.500E-01 0.500 F -0.163 -0.311 +25° 44' 54.60" 1.000E-01 0.500 F 0.264 -0.381 21.0 V 0.70 0.00 o 691 1.00 Yes Yes
2000YN29 O C H 2009-01-02.09411 1.000E-05 04:30:08.080 1.500E-01 0.500 F -0.220 0.167 +23° 38' 21.90" 1.000E-01 0.500 F 0.237 -0.138 20.3 V 0.70 -0.03 o 691 0.43 Yes Yes
2008YT30 O C H 2009-01-02.09695 1.000E-05 04:29:40.460 1.500E-01 0.500 F -0.224 -0.600 +22° 18' 48.50" 1.000E-01 0.500 F 0.153 -0.339 20.7 V 0.70 0.29 o 691 1.39 Yes Yes
2000YJ29 O C 2009-01-02.10230 1.000E-05 04:33:18.850 1.500E-01 0.500 F -0.163 0.055 +25° 44' 44.20" 1.000E-01 0.500 F 0.264 -0.186 20.9 V 0.70 -0.10 o 691 0.39 Yes Yes
2000YN29 O C H 2009-01-02.10515 1.000E-05 04:30:07.010 1.500E-01 0.500 F -0.220 -0.024 +23° 38' 21.10" 1.000E-01 0.500 F 0.237 -0.291 20.5 V 0.70 0.17 o 691 0.59 Yes Yes
2008YT30 O C H 2009-01-02.10774 1.000E-05 04:29:39.460 1.500E-01 0.500 F -0.224 0.102 +22° 18' 35.20" 1.000E-01 0.500 F 0.153 0.112 20.6 V 0.70 0.19 o 691 0.30 Yes Yes
2008WL O C H 2009-01-02.11382 1.000E-05 06:16:45.140 1.500E-01 0.500 F -0.057 0.109 +22° 23' 13.40" 1.000E-01 0.500 F 0.197 0.319 20.2 V 0.70 -0.32 o 691 0.70 Yes Yes
2005HA8 O C H 2009-01-02.12147 1.000E-05 06:39:50.420 1.500E-01 0.500 F -0.063 0.057 +22° 19' 02.10" 1.000E-01 0.500 F 0.094 0.023 o 691 0.12 Yes No
2008WL O C H 2009-01-02.13199 1.000E-05 06:16:44.650 1.500E-01 0.500 F -0.057 -0.178 +22° 22' 55.50" 1.000E-01 0.500 F 0.197 -0.067 20.5 V 0.70 -0.03 o 691 0.40 Yes Yes
2005HA8 O C H 2009-01-02.13964 1.000E-05 06:39:48.660 1.500E-01 0.500 F -0.063 -0.576 +22° 19' 11.00" 1.000E-01 0.500 F 0.094 0.301 21.3 V 0.70 -0.34 o 691 1.32 Yes Yes
1999NB5 O C H 2009-01-02.14745 1.000E-05 06:37:11.360 1.500E-01 0.500 F -0.094 0.324 +20° 44' 36.10" 1.000E-01 0.500 F 0.193 -0.372 o 691 0.99 Yes No
2008WL O C H 2009-01-02.15016 1.000E-05 06:16:44.200 1.500E-01 0.500 F -0.057 0.304 +22° 22' 37.60" 1.000E-01 0.500 F 0.197 -0.413 o 691 1.07 Yes No
1999NB5 O C H 2009-01-02.16561 1.000E-05 06:37:09.450 1.500E-01 0.500 F -0.094 -0.127 +20° 44' 37.60" 1.000E-01 0.500 F 0.193 -0.784 o 691 1.60 Yes No
2001WN5 O C H 2009-01-02.17361 1.000E-05 06:45:54.310 1.500E-01 0.500 F -0.079 0.147 +22° 48' 09.20" 1.000E-01 0.500 F 0.089 -0.205 20.5 V 0.70 0.31 o 691 0.50 Yes Yes
2001WN5 O C H 2009-01-02.19202 1.000E-05 06:45:52.270 1.500E-01 0.500 F -0.079 -0.102 +22° 48' 10.70" 1.000E-01 0.500 F 0.089 -0.003 20.3 V 0.70 0.11 o 691 0.20 Yes Yes
2001WN5 O C H 2009-01-02.21019 1.000E-05 06:45:50.240 1.500E-01 0.500 F -0.079 -0.520 +22° 48' 11.80" 1.000E-01 0.500 F 0.089 -0.156 20.2 V 0.70 0.01 o 691 1.09 Yes Yes
Blume O C H 2009-01-02.31369 1.000E-05 07:38:02.770 1.500E-01 0.500 F -0.034 0.382 +21° 26' 16.80" 1.000E-01 0.500 F 0.271 0.097 21.1 V 0.70 0.03 o 691 0.79 Yes Yes
Blume O C H 2009-01-02.33210 1.000E-05 07:38:01.280 1.500E-01 0.500 F -0.034 0.277 +21° 26' 20.70" 1.000E-01 0.500 F 0.271 -1.052 o 691 2.18 Yes No
2008YG29 O C t 2009-01-02.34477 1.000E-05 08:14:08.710 1.500E-01 0.500 F 0.020 0.034 +20° 23' 14.00" 1.000E-01 0.500 F 0.265 -0.164 20.3 V 0.70 0.30 o 691 0.37 Yes Yes
2008YG29 O C t 2009-01-02.36316 1.000E-05 08:14:13.100 1.500E-01 0.500 F 0.020 0.364 +20° 21' 25.60" 1.000E-01 0.500 F 0.265 -0.752 20.2 V 0.70 0.20 o 691 1.85 Yes Yes
2008YG29 O C t 2009-01-02.38133 1.000E-05 08:14:17.370 1.500E-01 0.500 F 0.020 -0.118 +20° 19' 39.30" 1.000E-01 0.500 F 0.265 -0.246 20.1 V 0.70 0.09 o 691 0.58 Yes Yes
2001AE2 O C H 2009-01-02.51742 1.000E-05 12:30:36.940 1.500E-01 0.500 F 0.104 -0.450 -04° 48' 25.90" 1.000E-01 0.500 F 0.170 -0.100 21.1 V 0.70 -0.12 o 691 0.92 Yes Yes
2001AE2 O C H 2009-01-02.53050 1.000E-05 12:30:38.970 1.500E-01 0.500 F 0.104 0.055 -04° 48' 38.10" 1.000E-01 0.500 F 0.170 0.008 21.2 V 0.70 -0.02 o 691 0.11 Yes Yes
2001AE2 O C H 2009-01-02.54359 1.000E-05 12:30:40.950 1.500E-01 0.500 F 0.104 -0.204 -04° 48' 50.70" 1.000E-01 0.500 F 0.170 -0.281 21.3 V 0.70 0.08 o 691 0.70 Yes Yes
2002JA9 O C H 2009-01-03.18916 1.000E-05 07:02:39.200 1.500E-01 0.500 F -0.056 -0.687 +25° 44' 34.70" 1.000E-01 0.500 F 0.175 -0.809 o 691 2.21 Yes No
2002JA9 O C H 2009-01-03.20733 1.000E-05 07:02:37.630 1.500E-01 0.500 F -0.056 1.256 +25° 44' 41.30" 1.000E-01 0.500 F 0.175 -0.812 o 691 3.12 Yes No
2002JA9 O C H 2009-01-03.22576 1.000E-05 07:02:35.760 1.500E-01 0.500 F -0.056 -0.479 +25° 44' 48.40" 1.000E-01 0.500 F 0.175 -0.384 o 691 1.28 Yes No
2006WQ1 O C H 2009-01-03.30086 1.000E-05 07:56:49.710 1.500E-01 0.500 F -0.055 -0.281 +19° 18' 08.30" 1.000E-01 0.500 F 0.210 0.053 20.9 V 0.70 0.17 o 691 0.58 Yes Yes
2006WQ1 O C H 2009-01-03.31899 1.000E-05 07:56:47.820 1.500E-01 0.500 F -0.055 -0.228 +19° 18' 27.20" 1.000E-01 0.500 F 0.210 0.312 20.6 V 0.70 -0.13 o 691 0.78 Yes Yes
2003XB22 O C H 2009-01-03.32688 1.000E-05 07:48:41.200 1.500E-01 0.500 F -0.024 0.328 +18° 21' 20.40" 1.000E-01 0.500 F 0.258 -0.754 o 691 1.65 Yes No
2003XB22 O C H 2009-01-03.34527 1.000E-05 07:48:38.840 1.500E-01 0.500 F -0.024 0.258 +18° 22' 12.70" 1.000E-01 0.500 F 0.258 -0.588 o 691 1.29 Yes No
2004QQ O C H 2009-01-03.40724 1.000E-05 08:42:15.270 1.500E-01 0.500 F -0.054 -0.982 +16° 23' 10.50" 1.000E-01 0.500 F 0.051 0.039 21.4 V 0.70 -0.34 o 691 1.97 Yes Yes
2004QQ O C H 2009-01-03.42562 1.000E-05 08:42:14.230 1.500E-01 0.500 F -0.054 0.215 +16° 23' 14.10" 1.000E-01 0.500 F 0.051 0.577 21.2 V 0.70 -0.53 o 691 1.23 Yes Yes
2004QQ O C H 2009-01-03.44138 1.000E-05 08:42:13.220 1.500E-01 0.500 F -0.054 -0.464 +16° 23' 16.80" 1.000E-01 0.500 F 0.051 0.660 21.3 V 0.70 -0.43 o 691 1.62 Yes Yes
2002EB3 O C H 2009-01-03.53361 1.000E-05 12:49:01.410 1.500E-01 0.500 F 0.123 0.273 -00° 53' 57.20" 1.000E-01 0.500 F 0.119 -0.223 21.1 V 0.70 -0.58 o 691 0.71 Yes Yes
2006DZ169 O C H 2009-01-03.53607 1.000E-05 12:53:48.190 1.500E-01 0.500 F 0.164 -2.629 -01° 54' 12.10" 1.000E-01 0.500 F 0.140 -0.005 o 691 5.25 No No
2002EB3 O C H 2009-01-03.54670 1.000E-05 12:49:02.420 1.500E-01 0.500 F 0.123 0.504 -00° 54' 05.00" 1.000E-01 0.500 F 0.119 -0.831 21.3 V 0.70 -0.38 o 691 1.95 Yes Yes
2006DZ169 O C H 2009-01-03.54917 1.000E-05 12:53:49.270 1.500E-01 0.500 F 0.164 0.056 -01° 54' 18.40" 1.000E-01 0.500 F 0.140 -0.158 o 691 0.34 Yes No
2002EB3 O C H 2009-01-03.55956 1.000E-05 12:49:03.340 1.500E-01 0.500 F 0.123 -0.350 -00° 54' 11.20" 1.000E-01 0.500 F 0.119 0.034 20.8 V 0.70 -0.88 o 691 0.70 Yes Yes
2006DZ169 O C H 2009-01-03.56226 1.000E-05 12:53:50.200 1.500E-01 0.500 F 0.164 0.506 -01° 54' 24.70" 1.000E-01 0.500 F 0.140 -0.317 o 691 1.19 Yes No
2000YN29 O C H 2009-01-07.08362 1.000E-05 04:22:43.680 1.500E-01 0.500 F -0.293 -0.301 +23° 32' 32.80" 1.000E-01 0.500 F 0.213 -0.241 20.2 V 0.70 -0.19 o 691 0.78 Yes Yes
2000YN29 O C H 2009-01-07.10097 1.000E-05 04:22:42.220 1.500E-01 0.500 F -0.293 0.215 +23° 32' 32.40" 1.000E-01 0.500 F 0.213 0.408 20.3 V 0.70 -0.09 o 691 0.93 Yes Yes
2000YN29 O C H 2009-01-07.11486 1.000E-05 04:22:41.020 1.500E-01 0.500 F -0.293 0.223 +23° 32' 31.00" 1.000E-01 0.500 F 0.213 -0.135 20.2 V 0.70 -0.19 o 691 0.52 Yes Yes
2001KN20 O C H 2009-01-07.24984 1.000E-05 07:11:38.150 1.500E-01 0.500 F -0.052 -0.499 +22° 54' 39.90" 1.000E-01 0.500 F 0.238 -0.321 o 691 1.19 Yes No
Gordonmoore O C H 2009-01-07.24984 1.000E-05 07:08:38.340 1.500E-01 0.500 F -0.085 0.285 +22° 36' 39.70" 1.000E-01 0.500 F 0.225 -0.529 20.8 V 0.70 0.20 o 691 1.20 Yes Yes
1997AP10 O C H 2009-01-07.25256 1.000E-05 07:20:24.510 1.500E-01 0.500 F -0.014 -1.111 +23° 14' 03.50" 1.000E-01 0.500 F 0.223 0.864 20.3 V 0.70 0.62 o 691 2.82 Yes Yes
Gordonmoore O C H 2009-01-07.26829 1.000E-05 07:08:36.940 1.500E-01 0.500 F -0.085 0.574 +22° 36' 44.40" 1.000E-01 0.500 F 0.225 -0.463 o 691 1.48 Yes No
2001KN20 O C H 2009-01-07.26829 1.000E-05 07:11:36.770 1.500E-01 0.500 F -0.052 -0.387 +22° 54' 45.40" 1.000E-01 0.500 F 0.238 -0.216 21.2 V 0.70 0.30 o 691 0.89 Yes Yes
1997AP10 O C H 2009-01-07.27076 1.000E-05 07:20:22.380 1.500E-01 0.500 F -0.014 -0.507 +23° 14' 04.80" 1.000E-01 0.500 F 0.223 0.115 20.2 V 0.70 0.52 o 691 1.04 Yes Yes
Gordonmoore O C H 2009-01-07.28648 1.000E-05 07:08:35.500 1.500E-01 0.500 F -0.085 0.048 +22° 36' 49.50" 1.000E-01 0.500 F 0.225 0.090 20.8 V 0.70 0.20 o 691 0.21 Yes Yes
2003NP7 O C H 2009-01-07.30725 1.000E-05 07:45:09.850 1.500E-01 0.500 F -0.069 0.508 +19° 11' 12.50" 1.000E-01 0.500 F 0.254 0.151 o 691 1.07 Yes No
2003NP7 O C H 2009-01-07.32541 1.000E-05 07:45:08.370 1.500E-01 0.500 F -0.069 -0.002 +19° 11' 11.60" 1.000E-01 0.500 F 0.254 -0.043 o 691 0.09 Yes No
2003NP7 O C H 2009-01-07.34358 1.000E-05 07:45:06.870 1.500E-01 0.500 F -0.069 -0.776 +19° 11' 10.20" 1.000E-01 0.500 F 0.254 -0.717 o 691 2.12 Yes No
2009AN O C H 2009-01-07.36452 1.000E-05 08:11:22.540 1.500E-01 0.500 F -0.008 -0.200 +23° 18' 38.10" 1.000E-01 0.500 F 0.192 0.307 21.0 V 0.70 0.63 o 691 0.77 Yes Yes
2009AN O C H 2009-01-07.38015 1.000E-05 08:11:19.680 1.500E-01 0.500 F -0.008 -0.762 +23° 18' 04.70" 1.000E-01 0.500 F 0.192 -0.637 20.5 V 0.70 0.13 o 691 2.24 Yes Yes
2009AN O C H 2009-01-07.39579 1.000E-05 08:11:16.930 1.500E-01 0.500 F -0.008 0.177 +23° 17' 31.80" 1.000E-01 0.500 F 0.192 -1.008 o 691 2.16 Yes No
2009AL15 O C 2009-01-07.41933 1.000E-05 08:34:10.850 1.500E-01 0.500 F 0.038 -0.071 +15° 07' 13.00" 1.000E-01 0.500 F 0.069 0.265 20.1 V 0.70 -0.02 o 691 0.56 Yes Yes
2016QZ83 O C 2009-01-07.42697 1.000E-05 08:56:44.680 1.500E-01 0.500 F 0.017 -0.842 +14° 05' 11.80" 1.000E-01 0.500 F 0.193 -0.029 21.1 V 0.70 0.17 o 691 1.76 Yes Yes
2004QQ O C H 2009-01-07.43239 1.000E-05 08:38:07.720 1.500E-01 0.500 F -0.013 0.190 +16° 34' 43.90" 1.000E-01 0.500 F 0.005 -1.794 o 691 3.60 No No
2009AL15 O C 2009-01-07.43747 1.000E-05 08:34:09.080 1.500E-01 0.500 F 0.038 -0.241 +15° 08' 13.20" 1.000E-01 0.500 F 0.069 0.325 20.3 V 0.70 0.18 o 691 0.83 Yes Yes
2016QZ83 O C 2009-01-07.44511 1.000E-05 08:56:43.320 1.500E-01 0.500 F 0.017 -0.677 +14° 05' 06.60" 1.000E-01 0.500 F 0.193 0.078 21.1 V 0.70 0.17 o 691 1.42 Yes Yes
2004QQ O C H 2009-01-07.45055 1.000E-05 08:38:06.510 1.500E-01 0.500 F -0.013 -0.423 +16° 34' 48.10" 1.000E-01 0.500 F 0.005 -0.774 o 691 1.77 Yes No
2009AL15 O C 2009-01-07.45588 1.000E-05 08:34:07.330 1.500E-01 0.500 F 0.038 0.138 +15° 09' 13.40" 1.000E-01 0.500 F 0.069 -0.436 19.9 V 0.70 -0.22 o 691 0.94 Yes Yes
2016QZ83 O C 2009-01-07.46351 1.000E-05 08:56:41.940 1.500E-01 0.500 F 0.017 -0.585 +14° 05' 00.90" 1.000E-01 0.500 F 0.193 -0.196 20.7 V 0.70 -0.23 o 691 1.29 Yes Yes
2003YL O C H 2009-01-07.47773 1.000E-05 08:44:08.190 1.500E-01 0.500 F -0.086 0.694 +17° 10' 20.90" 1.000E-01 0.500 F 0.159 -1.070 o 691 2.55 Yes No
Toutatis O C 2009-01-07.48291 1.000E-05 08:58:36.650 1.500E-01 0.500 F 0.092 -0.013 +16° 45' 15.00" 1.000E-01 0.500 F 0.182 -0.019 14.6 V 0.70 0.53 o 691 0.05 Yes Yes
1990UQ O C 2009-01-07.49073 1.000E-05 09:05:08.000 1.500E-01 0.500 F -0.017 -1.317 +15° 19' 04.30" 1.000E-01 0.500 F 0.147 -0.053 21.0 V 0.70 -0.04 o 691 2.64 Yes Yes
2003YL O C H 2009-01-07.49615 1.000E-05 08:44:04.440 1.500E-01 0.500 F 0.032 -0.220 +17° 10' 30.60" 1.000E-01 0.500 F 0.074 0.393 21.2 V 0.70 0.48 o 691 0.90 Yes Yes
1998CS1 O C H 2009-01-07.49862 1.000E-05 08:52:16.950 1.500E-01 0.500 F 0.029 -0.519 +15° 47' 54.60" 1.000E-01 0.500 F 0.166 0.061 14.7 V 0.70 0.47 o 691 1.05 Yes Yes
Toutatis O C 2009-01-07.50108 1.000E-05 08:58:34.350 1.500E-01 0.500 F 0.092 0.112 +16° 45' 25.50" 1.000E-01 0.500 F 0.182 -0.031 14.6 V 0.70 0.53 o 691 0.23 Yes Yes
1990UQ O C 2009-01-07.50641 1.000E-05 09:05:06.940 1.500E-01 0.500 F -0.017 0.175 +15° 19' 10.20" 1.000E-01 0.500 F 0.147 0.136 20.6 V 0.70 -0.44 o 691 0.44 Yes Yes
2003YL O C H 2009-01-07.51183 1.000E-05 08:44:01.300 1.500E-01 0.500 F 0.032 -0.227 +17° 10' 37.10" 1.000E-01 0.500 F 0.074 -0.163 o 691 0.56 Yes No
1998CS1 O C H 2009-01-07.51430 1.000E-05 08:52:21.690 1.500E-01 0.500 F 0.029 -0.160 +15° 48' 27.20" 1.000E-01 0.500 F 0.166 0.017 14.5 V 0.70 0.27 o 691 0.32 Yes Yes
Toutatis O C 2009-01-07.51677 1.000E-05 08:58:32.260 1.500E-01 0.500 F 0.092 -1.454 +16° 45' 33.00" 1.000E-01 0.500 F 0.182 -1.547 14.3 V 0.70 0.23 o 691 4.25 No Yes
1990UQ O C 2009-01-07.52209 1.000E-05 09:05:05.800 1.500E-01 0.500 F -0.017 0.482 +15° 19' 16.00" 1.000E-01 0.500 F 0.147 0.233 21.0 V 0.70 -0.04 o 691 1.07 Yes Yes
1996FG3 O C 2009-01-07.53807 1.000E-05 12:35:23.650 1.500E-01 0.500 F 0.215 0.351 -05° 20' 40.90" 1.000E-01 0.500 F 0.118 0.502 20.2 V 0.70 -0.36 o 691 1.23 Yes Yes
1996FG3 O C 2009-01-07.55093 1.000E-05 12:35:24.670 1.500E-01 0.500 F 0.215 -0.621 -05° 20' 50.30" 1.000E-01 0.500 F 0.118 0.177 20.4 V 0.70 -0.16 o 691 1.29 Yes Yes
1996FG3 O C 2009-01-07.56404 1.000E-05 12:35:25.770 1.500E-01 0.500 F 0.215 -0.715 -05° 20' 59.80" 1.000E-01 0.500 F 0.118 -0.078 20.3 V 0.70 -0.26 o 691 1.44 Yes Yes
2000NF5 O C H 2009-01-08.41759 1.000E-05 08:41:06.320 1.500E-01 0.500 F 0.032 -0.565 +17° 37' 34.70" 1.000E-01 0.500 F 0.074 -1.283 20.6 V 0.70 -0.23 o 691 2.81 Yes Yes
2000NF5 O C H 2009-01-08.43333 1.000E-05 08:41:05.460 1.500E-01 0.500 F 0.032 0.325 +17° 37' 38.10" 1.000E-01 0.500 F 0.074 -0.943 20.5 V 0.70 -0.33 o 691 2.00 Yes Yes
2004YJ32 O C 2009-01-08.45408 1.000E-05 08:53:55.570 1.500E-01 0.500 F 0.013 -0.631 +18° 18' 18.60" 1.000E-01 0.500 F 0.165 0.303 20.3 V 0.70 -0.18 o 691 1.40 Yes Yes
2004YJ32 O C 2009-01-08.47566 1.000E-05 08:53:54.210 1.500E-01 0.500 F 0.013 -0.210 +18° 18' 26.60" 1.000E-01 0.500 F 0.165 -0.045 20.4 V 0.70 -0.08 o 691 0.43 Yes Yes
2004YJ32 O C 2009-01-08.49724 1.000E-05 08:53:52.820 1.500E-01 0.500 F 0.013 -0.252 +18° 18' 35.00" 1.000E-01 0.500 F 0.165 0.026 20.3 V 0.70 -0.18 o 691 0.51 Yes Yes
1998WT30 O C H 2009-01-08.51565 1.000E-05 12:42:02.600 1.500E-01 0.500 F 0.194 -0.063 -03° 26' 49.50" 1.000E-01 0.500 F 0.117 -0.084 21.4 V 0.70 0.37 o 691 0.21 Yes Yes
2006DZ169 O C H 2009-01-08.52080 1.000E-05 12:59:31.690 1.500E-01 0.500 F 0.149 0.445 -02° 32' 28.40" 1.000E-01 0.500 F 0.131 -0.728 o 691 1.71 Yes No
1998WT30 O C H 2009-01-08.52871 1.000E-05 12:42:05.230 1.500E-01 0.500 F 0.194 0.076 -03° 27' 06.80" 1.000E-01 0.500 F 0.117 -0.397 o 691 0.82 Yes No
2006DZ169 O C H 2009-01-08.53386 1.000E-05 12:59:32.550 1.500E-01 0.500 F 0.149 0.480 -02° 32' 34.20" 1.000E-01 0.500 F 0.131 -0.628 21.2 V 0.70 -0.22 o 691 1.58 Yes Yes
1998WT30 O C H 2009-01-08.54176 1.000E-05 12:42:07.930 1.500E-01 0.500 F 0.194 1.298 -03° 27' 23.60" 1.000E-01 0.500 F 0.117 -0.229 o 691 2.70 Yes No

[1-200] [201-400] [401-600] [601-800] [801-1000] [1001-1200] [1201-1400] [1401-1600] [1601-1800] [1801-2000] [2001-2200] [2201-2400] [2401-2600] [2601-2800] [2801-3000] [3001-3200] [3201-3400] [3401-3600] [3601-3800] [3801-4000] [4001-4200] [4201-4400] [4401-4600] [4601-4800] [4801-5000] [5001-5200] [5201-5400] [5401-5600] [5601-5800] [5801-6000] [6001-6200] [6201-6400] [6401-6600] [6601-6800] [6801-7000] [7001-7200] [7201-7400] [7401-7600] [7601-7800] [7801-8000] [8001-8200] [8201-8400] [8401-8600] [8601-8800] [8801-9000] [9001-9200] [9201-9400] [9401-9600] [9601-9800] [9801-10000] [10001-10200] [10201-10400] [10401-10600] [10601-10800] [10801-11000] [11001-11200] [11201-11400] [11401-11600] [11601-11800] [11801-12000] [12001-12200] [12201-12400] [12401-12600] [12601-12800] [12801-13000] [13001-13200] [13201-13400] [13401-13600] [13601-13800] [13801-14000] [14001-14200] [14201-14400] [14401-14600] [14601-14800] [14801-15000] [15001-15200] [15201-15400] [15401-15600] [15601-15800] [15801-16000] [16001-16200] [16201-16400] [16401-16600] [16601-16800] [16801-17000] [17001-17200] [17201-17400] [17401-17600] [17601-17800] [17801-18000] [18001-18200] [18201-18400] [18401-18600] [18601-18800] [18801-19000] [19001-19200] [19201-19400] [19401-19600] [19601-19800] [19801-20000] [20001-20200] [20201-20400] [20401-20600] [20601-20800] [20801-21000] [21001-21200] [21201-21400] [21401-21600] [21601-21800] [21801-22000] [22001-22200] [22201-22400] [22401-22600] [22601-22800] [22801-23000] [23001-23200] [23201-23400] [23401-23600] [23601-23800] [23801-24000] [24001-24200] [24201-24400] [24401-24600] [24601-24800] [24801-25000] [25001-25200] [25201-25400] [25401-25600] [25601-25800] [25801-26000] [26001-26200] [26201-26400] [26401-26600] [26601-26800] [26801-27000] [27001-27200] [27201-27400] [27401-27600] [27601-27800] [27801-28000] [28001-28200] [28201-28400] [28401-28600] [28601-28800] [28801-29000] [29001-29200] [29201-29400] [29401-29600] [29601-29800] [29801-30000] [30001-30200] [30201-30400] [30401-30600] [30601-30800] [30801-31000] [31001-31200] [31201-31400] [31401-31600] [31601-31800] [31801-32000] [32001-32200] [32201-32400] [32401-32600] [32601-32800] [32801-33000] [33001-33200] [33201-33400] [33401-33600] [33601-33800] [33801-34000] [34001-34200] [34201-34400] [34401-34600] [34601-34800] [34801-35000] [35001-35200] [35201-35400] [35401-35600] [35601-35800] [35801-36000] [36001-36200] [36201-36400] [36401-36600] [36601-36800] [36801-37000] [37001-37200] [37201-37400] [37401-37600] [37601-37800] [37801-38000] [38001-38200] [38201-38400] [38401-38600] [38601-38800] [38801-39000] [39001-39200] [39201-39400] [39401-39600] [39601-39800] [39801-40000] [40001-40200] [40201-40400] [40401-40600] [40601-40800] [40801-41000] [41001-41200] [41201-41400] [41401-41600] [41601-41800] [41801-42000] [42001-42200] [42201-42400] [42401-42600] [42601-42800] [42801-43000] [43001-43200] [43201-43400] [43401-43600] [43601-43800] [43801-44000] [44001-44200] [44201-44400] [44401-44600] [44601-44800] [44801-45000] [45001-45200] [45201-45400] [45401-45600] [45601-45800] [45801-46000] [46001-46200] [46201-46400] [46401-46600] [46601-46800] [46801-47000] [47001-47200] [47201-47400] [47401-47600] [47601-47800] [47801-48000] [48001-48200] [48201-48400] [48401-48600] [48601-48800] [48801-49000] [49001-49200] [49201-49400] [49401-49600] [49601-49800] [49801-50000] [50001-50200] [50201-50388]